Mc Comb, Pike County, John E Lewis Field Mc Comb US
ICAO: KMCB
IATA: MCB
Category: Medium
Scheduled Services: No

Elevation: 413 ft
TransAlt. 18000 ft.

Airport Communications:
ASOS:119.025
HOUSTON CNTR:133.5
GREENWOOD RDO:122.2
CTAF/UNICOM:123.05

KMCB Zoom In..

Runways:

(A) RW 15 length 5000 ft width 100 ft
ILS 109.10 / hdg 153

(B) RW 33 length 5000 ft width 100 ft
---- / hdg 333

Location; KMCB
Day. 03 / Time. 01.53 Zulu
* Altimeter: 30.07
* Temperature: 26° c. 78.8°f.
* Wind from: 120° Speed 05 kn.
Dewpoint: 21° c.
Visibility: 10 Statute Miles.
Clouds: Few 3000 ft.

KMCB 030153Z AUTO 12005KT 10SM FEW030 26/21 A3007 RMK AO2 LTG DSNT S SLP176 T02560211


Wind From 120°
Speed 05 kn.

 
 
jpsmedia worldairports.se 2020   terms of use